Hundvaag 1 weather for Jul 2005
Month no. 217
Obs.
Da.
Temp. Dew Point Precip. Wind
Speed
Wind gusts Cloud cover Press. Humidity Wind dir. Sunny OPT
01.07.2005 14,4   0,0 3,1   4 1012,2 49,0   1 77,5 %
02.07.2005 12,8   5,5 1,3   0 1015,9 87,0     65,0 %
03.07.2005 11,7   0,4 2,7   3 1015,6 76,0 45,0 1 72,5 %
04.07.2005 14,4   0,7 2,2   3 1007,5 77,0 225,0   75,0 %
05.07.2005 12,8   3,0 4,0   2 1006,8 64,0 112,5   67,5 %
06.07.2005 11,7   0,0 0,9   4 1012,5 84,0 225,0 1 75,0 %
07.07.2005 12,8   0,0 1,3   4 1013,5 85,0 22,5 1 77,5 %
08.07.2005 14,4   0,6 0,9   4 1017,6 77,0 337,5   77,5 %
09.07.2005 14,4   0,0 0,9   4 1024,0 69,0 315,0 1 77,5 %
10.07.2005 14,4   0,0 1,3   4 1027,8 85,0 292,5 1 77,5 %
11.07.2005 14,4   1,0 2,2   3 1030,8 81,0 0,0   75,0 %
12.07.2005 13,3   0,0 1,3   4 1026,1 87,0 315,0 1 77,5 %
13.07.2005 12,8   0,5 2,2   3 1022,4 76,0 315,0   75,0 %
14.07.2005 11,7   0,0 2,2   4 1013,5 84,0 225,0 1 75,0 %
15.07.2005 14,4   6,0 2,7   2 1008,5 86,0 202,5   67,5 %
16.07.2005 12,2   0,0 3,6   4 1008,8 81,0 337,5 1 75,0 %
17.07.2005 9,4   0,0 0,9   4 1010,2 81,0   1 72,5 %
18.07.2005 12,2   0,0 1,8   4 1003,0 78,0 157,5 1 75,0 %
19.07.2005 13,3   0,0 1,8   4 1000,7 81,0     77,5 %
20.07.2005 8,9   6,5 2,2   1 1003,4 90,0     60,0 %
21.07.2005 13,3   2,7 3,1   2 1002,4 84,0 292,5   72,5 %
22.07.2005 15,0   0,0 0,0   4 1008,1 69,0 247,5 1 80,0 %
23.07.2005 12,8   0,0 0,4   4 1003,0 76,0 247,5 1 77,5 %
24.07.2005 11,7   0,0 1,3   4 1001,4 77,0 270,0 1 75,0 %
25.07.2005 11,1   0,0 1,8   4 1001,0 80,0 337,5 1 75,0 %
26.07.2005 11,1   0,0 2,2   4 1004,4 82,0 315,0 1 75,0 %
27.07.2005 12,2   0,0 2,7   4 1008,5 77,0 337,5 1 75,0 %
28.07.2005 11,7   0,3 1,3   3 1013,2 79,0 292,5 1 72,5 %
29.07.2005 10,6   0,0 0,9   4 1015,6 81,0 292,5 1 75,0 %
30.07.2005 12,2   0,0 1,3   4 1007,5 72,0 0,0 1 75,0 %
31.07.2005 14,4   1,2 0,9   3 1005,8 90,0 0,0   75,0 %
Avrg/Sum 12,7   28,4 1,8   3,4 1011,3 78,9 221,5 20 74,2 %